sensor_id;sensor_type;location;lat;lon;timestamp;P1;durP1;ratioP1;P2;durP2;ratioP2
5279;SDS011;2663;53.588;10.010;2023-12-14T00:01:12;2.23;;;1.77;;
5279;SDS011;2663;53.588;10.010;2023-12-14T00:03:39;2.93;;;1.40;;
5279;SDS011;2663;53.588;10.010;2023-12-14T00:06:13;4.50;;;2.23;;
5279;SDS011;2663;53.588;10.010;2023-12-14T00:08:41;3.63;;;1.73;;
5279;SDS011;2663;53.588;10.010;2023-12-14T00:11:09;5.10;;;2.30;;
5279;SDS011;2663;53.588;10.010;2023-12-14T00:13:37;2.40;;;2.17;;
5279;SDS011;2663;53.588;10.010;2023-12-14T00:16:05;3.33;;;2.03;;
5279;SDS011;2663;53.588;10.010;2023-12-14T00:18:32;4.00;;;1.53;;
5279;SDS011;2663;53.588;10.010;2023-12-14T00:20:59;4.00;;;2.10;;
5279;SDS011;2663;53.588;10.010;2023-12-14T00:23:27;2.83;;;2.10;;
5279;SDS011;2663;53.588;10.010;2023-12-14T00:25:54;3.83;;;1.70;;
5279;SDS011;2663;53.588;10.010;2023-12-14T00:28:22;7.77;;;1.93;;
5279;SDS011;2663;53.588;10.010;2023-12-14T00:30:52;2.40;;;1.50;;
5279;SDS011;2663;53.588;10.010;2023-12-14T00:33:20;6.83;;;1.87;;
5279;SDS011;2663;53.588;10.010;2023-12-14T00:35:46;3.10;;;2.10;;
5279;SDS011;2663;53.588;10.010;2023-12-14T00:38:13;3.53;;;1.53;;
5279;SDS011;2663;53.588;10.010;2023-12-14T00:40:41;4.53;;;2.23;;
5279;SDS011;2663;53.588;10.010;2023-12-14T00:43:08;2.10;;;1.67;;
5279;SDS011;2663;53.588;10.010;2023-12-14T00:45:34;2.40;;;1.60;;
5279;SDS011;2663;53.588;10.010;2023-12-14T00:48:02;1.83;;;1.73;;
5279;SDS011;2663;53.588;10.010;2023-12-14T00:50:29;5.20;;;2.03;;
5279;SDS011;2663;53.588;10.010;2023-12-14T00:52:56;4.20;;;1.37;;
5279;SDS011;2663;53.588;10.010;2023-12-14T00:55:23;1.87;;;1.70;;
5279;SDS011;2663;53.588;10.010;2023-12-14T00:57:50;5.30;;;1.70;;
5279;SDS011;2663;53.588;10.010;2023-12-14T01:00:17;2.27;;;2.07;;
5279;SDS011;2663;53.588;10.010;2023-12-14T01:02:44;5.97;;;1.67;;
5279;SDS011;2663;53.588;10.010;2023-12-14T01:05:11;1.50;;;1.20;;
5279;SDS011;2663;53.588;10.010;2023-12-14T01:07:38;2.60;;;1.80;;
5279;SDS011;2663;53.588;10.010;2023-12-14T01:10:05;6.70;;;1.57;;
5279;SDS011;2663;53.588;10.010;2023-12-14T01:12:33;9.20;;;2.13;;
5279;SDS011;2663;53.588;10.010;2023-12-14T01:15:00;2.73;;;1.20;;
5279;SDS011;2663;53.588;10.010;2023-12-14T01:17:27;5.33;;;1.57;;
5279;SDS011;2663;53.588;10.010;2023-12-14T01:19:55;4.73;;;1.60;;
5279;SDS011;2663;53.588;10.010;2023-12-14T01:22:22;9.40;;;2.30;;
5279;SDS011;2663;53.588;10.010;2023-12-14T01:24:49;5.20;;;1.70;;
5279;SDS011;2663;53.588;10.010;2023-12-14T01:27:16;5.73;;;1.70;;
5279;SDS011;2663;53.588;10.010;2023-12-14T01:29:43;9.63;;;2.27;;
5279;SDS011;2663;53.588;10.010;2023-12-14T01:32:10;6.23;;;2.43;;
5279;SDS011;2663;53.588;10.010;2023-12-14T01:34:37;2.33;;;1.40;;
5279;SDS011;2663;53.588;10.010;2023-12-14T01:37:05;1.50;;;1.33;;
5279;SDS011;2663;53.588;10.010;2023-12-14T01:39:33;3.17;;;1.40;;
5279;SDS011;2663;53.588;10.010;2023-12-14T01:42:00;4.67;;;1.63;;
5279;SDS011;2663;53.588;10.010;2023-12-14T01:44:26;5.27;;;1.40;;
5279;SDS011;2663;53.588;10.010;2023-12-14T01:46:54;6.70;;;1.33;;
5279;SDS011;2663;53.588;10.010;2023-12-14T01:49:20;2.00;;;1.43;;
5279;SDS011;2663;53.588;10.010;2023-12-14T01:51:47;1.90;;;1.50;;
5279;SDS011;2663;53.588;10.010;2023-12-14T01:54:14;2.13;;;1.57;;
5279;SDS011;2663;53.588;10.010;2023-12-14T01:56:41;2.77;;;1.37;;
5279;SDS011;2663;53.588;10.010;2023-12-14T01:59:08;2.03;;;1.43;;
5279;SDS011;2663;53.588;10.010;2023-12-14T02:01:37;1.80;;;1.70;;
5279;SDS011;2663;53.588;10.010;2023-12-14T02:04:13;5.63;;;1.37;;
5279;SDS011;2663;53.588;10.010;2023-12-14T02:06:41;13.73;;;2.10;;
5279;SDS011;2663;53.588;10.010;2023-12-14T02:09:08;2.90;;;1.30;;
5279;SDS011;2663;53.588;10.010;2023-12-14T02:11:36;2.20;;;1.77;;
5279;SDS011;2663;53.588;10.010;2023-12-14T02:14:03;3.53;;;1.43;;
5279;SDS011;2663;53.588;10.010;2023-12-14T02:16:31;4.90;;;1.20;;
5279;SDS011;2663;53.588;10.010;2023-12-14T02:18:58;1.63;;;1.13;;
5279;SDS011;2663;53.588;10.010;2023-12-14T02:21:25;6.57;;;2.10;;
5279;SDS011;2663;53.588;10.010;2023-12-14T02:23:52;4.27;;;1.40;;
5279;SDS011;2663;53.588;10.010;2023-12-14T02:26:19;7.10;;;1.77;;
5279;SDS011;2663;53.588;10.010;2023-12-14T02:28:46;4.10;;;1.40;;
5279;SDS011;2663;53.588;10.010;2023-12-14T02:31:13;3.17;;;1.47;;
5279;SDS011;2663;53.588;10.010;2023-12-14T02:33:40;3.83;;;1.60;;
5279;SDS011;2663;53.588;10.010;2023-12-14T02:36:07;3.17;;;1.40;;
5279;SDS011;2663;53.588;10.010;2023-12-14T02:38:34;4.40;;;1.30;;
5279;SDS011;2663;53.588;10.010;2023-12-14T02:41:02;1.47;;;1.13;;
5279;SDS011;2663;53.588;10.010;2023-12-14T02:43:29;5.50;;;1.53;;
5279;SDS011;2663;53.588;10.010;2023-12-14T02:45:56;8.47;;;1.50;;
5279;SDS011;2663;53.588;10.010;2023-12-14T02:48:28;2.47;;;1.70;;
5279;SDS011;2663;53.588;10.010;2023-12-14T02:50:56;7.90;;;2.40;;
5279;SDS011;2663;53.588;10.010;2023-12-14T02:53:23;2.20;;;1.20;;
5279;SDS011;2663;53.588;10.010;2023-12-14T02:55:50;2.53;;;1.40;;
5279;SDS011;2663;53.588;10.010;2023-12-14T02:58:18;5.43;;;1.60;;
5279;SDS011;2663;53.588;10.010;2023-12-14T03:00:45;2.20;;;1.37;;
5279;SDS011;2663;53.588;10.010;2023-12-14T03:03:12;5.43;;;1.90;;
5279;SDS011;2663;53.588;10.010;2023-12-14T03:05:39;2.80;;;1.93;;
5279;SDS011;2663;53.588;10.010;2023-12-14T03:08:06;6.60;;;1.53;;
5279;SDS011;2663;53.588;10.010;2023-12-14T03:10:33;3.57;;;1.90;;
5279;SDS011;2663;53.588;10.010;2023-12-14T03:13:00;6.13;;;1.87;;
5279;SDS011;2663;53.588;10.010;2023-12-14T03:15:27;4.13;;;1.40;;
5279;SDS011;2663;53.588;10.010;2023-12-14T03:17:54;2.40;;;1.47;;
5279;SDS011;2663;53.588;10.010;2023-12-14T03:20:21;2.23;;;1.77;;
5279;SDS011;2663;53.588;10.010;2023-12-14T03:22:48;1.93;;;1.70;;
5279;SDS011;2663;53.588;10.010;2023-12-14T03:25:15;9.43;;;1.90;;
5279;SDS011;2663;53.588;10.010;2023-12-14T03:27:44;3.77;;;1.60;;
5279;SDS011;2663;53.588;10.010;2023-12-14T03:30:11;8.03;;;2.17;;
5279;SDS011;2663;53.588;10.010;2023-12-14T03:32:39;4.20;;;1.70;;
5279;SDS011;2663;53.588;10.010;2023-12-14T03:35:06;7.40;;;1.77;;
5279;SDS011;2663;53.588;10.010;2023-12-14T03:37:34;8.33;;;2.43;;
5279;SDS011;2663;53.588;10.010;2023-12-14T03:40:02;23.33;;;2.07;;
5279;SDS011;2663;53.588;10.010;2023-12-14T03:42:29;2.00;;;1.40;;
5279;SDS011;2663;53.588;10.010;2023-12-14T03:44:56;4.37;;;1.70;;
5279;SDS011;2663;53.588;10.010;2023-12-14T03:47:23;4.83;;;2.10;;
5279;SDS011;2663;53.588;10.010;2023-12-14T03:49:50;4.60;;;2.00;;
5279;SDS011;2663;53.588;10.010;2023-12-14T03:52:17;3.90;;;1.80;;
5279;SDS011;2663;53.588;10.010;2023-12-14T03:54:44;4.87;;;1.33;;
5279;SDS011;2663;53.588;10.010;2023-12-14T03:57:11;1.80;;;1.70;;
5279;SDS011;2663;53.588;10.010;2023-12-14T03:59:38;2.60;;;1.40;;
5279;SDS011;2663;53.588;10.010;2023-12-14T04:02:06;6.80;;;2.13;;
5279;SDS011;2663;53.588;10.010;2023-12-14T04:04:34;2.67;;;2.47;;
5279;SDS011;2663;53.588;10.010;2023-12-14T04:07:01;3.53;;;1.73;;
5279;SDS011;2663;53.588;10.010;2023-12-14T04:09:28;4.50;;;2.37;;
5279;SDS011;2663;53.588;10.010;2023-12-14T04:11:55;2.00;;;1.90;;
5279;SDS011;2663;53.588;10.010;2023-12-14T04:14:22;9.30;;;1.93;;
5279;SDS011;2663;53.588;10.010;2023-12-14T04:16:49;6.03;;;2.20;;
5279;SDS011;2663;53.588;10.010;2023-12-14T04:19:17;2.93;;;1.70;;
5279;SDS011;2663;53.588;10.010;2023-12-14T04:21:44;4.03;;;2.00;;
5279;SDS011;2663;53.588;10.010;2023-12-14T04:24:11;4.90;;;2.20;;
5279;SDS011;2663;53.588;10.010;2023-12-14T04:26:39;3.87;;;1.33;;
5279;SDS011;2663;53.588;10.010;2023-12-14T04:29:06;5.87;;;2.23;;
5279;SDS011;2663;53.588;10.010;2023-12-14T04:31:34;2.90;;;2.20;;
5279;SDS011;2663;53.588;10.010;2023-12-14T04:34:01;4.70;;;2.27;;
5279;SDS011;2663;53.588;10.010;2023-12-14T04:36:28;5.27;;;1.70;;
5279;SDS011;2663;53.588;10.010;2023-12-14T04:38:55;2.07;;;1.70;;
5279;SDS011;2663;53.588;10.010;2023-12-14T04:41:22;4.20;;;1.97;;
5279;SDS011;2663;53.588;10.010;2023-12-14T04:43:49;4.20;;;2.50;;
5279;SDS011;2663;53.588;10.010;2023-12-14T04:46:16;8.03;;;3.10;;
5279;SDS011;2663;53.588;10.010;2023-12-14T04:48:44;2.60;;;1.83;;
5279;SDS011;2663;53.588;10.010;2023-12-14T04:51:11;2.47;;;2.13;;
5279;SDS011;2663;53.588;10.010;2023-12-14T04:53:39;10.87;;;2.87;;
5279;SDS011;2663;53.588;10.010;2023-12-14T04:56:09;1.67;;;1.57;;
5279;SDS011;2663;53.588;10.010;2023-12-14T04:58:41;4.50;;;2.50;;
5279;SDS011;2663;53.588;10.010;2023-12-14T05:01:08;6.17;;;2.17;;
5279;SDS011;2663;53.588;10.010;2023-12-14T05:03:35;3.63;;;2.03;;
5279;SDS011;2663;53.588;10.010;2023-12-14T05:06:02;7.53;;;2.30;;
5279;SDS011;2663;53.588;10.010;2023-12-14T05:08:30;3.27;;;2.17;;
5279;SDS011;2663;53.588;10.010;2023-12-14T05:10:57;4.70;;;2.57;;
5279;SDS011;2663;53.588;10.010;2023-12-14T05:13:24;5.80;;;2.60;;
5279;SDS011;2663;53.588;10.010;2023-12-14T05:15:51;10.50;;;3.23;;
5279;SDS011;2663;53.588;10.010;2023-12-14T05:18:18;6.80;;;2.50;;
5279;SDS011;2663;53.588;10.010;2023-12-14T05:20:45;8.27;;;2.27;;
5279;SDS011;2663;53.588;10.010;2023-12-14T05:23:13;3.70;;;2.80;;
5279;SDS011;2663;53.588;10.010;2023-12-14T05:25:40;7.10;;;3.00;;
5279;SDS011;2663;53.588;10.010;2023-12-14T05:28:07;5.60;;;2.33;;
5279;SDS011;2663;53.588;10.010;2023-12-14T05:30:34;4.13;;;2.37;;
5279;SDS011;2663;53.588;10.010;2023-12-14T05:33:02;8.40;;;2.23;;
5279;SDS011;2663;53.588;10.010;2023-12-14T05:35:29;11.83;;;3.13;;
5279;SDS011;2663;53.588;10.010;2023-12-14T05:37:56;5.53;;;2.30;;
5279;SDS011;2663;53.588;10.010;2023-12-14T05:40:23;5.33;;;2.63;;
5279;SDS011;2663;53.588;10.010;2023-12-14T05:42:51;11.20;;;2.83;;
5279;SDS011;2663;53.588;10.010;2023-12-14T05:45:17;9.10;;;2.70;;
5279;SDS011;2663;53.588;10.010;2023-12-14T05:47:44;5.07;;;2.60;;
5279;SDS011;2663;53.588;10.010;2023-12-14T05:50:12;6.20;;;2.80;;
5279;SDS011;2663;53.588;10.010;2023-12-14T05:52:39;3.70;;;3.10;;
5279;SDS011;2663;53.588;10.010;2023-12-14T05:55:07;2.73;;;2.53;;
5279;SDS011;2663;53.588;10.010;2023-12-14T05:57:36;3.87;;;2.40;;
5279;SDS011;2663;53.588;10.010;2023-12-14T06:00:03;3.97;;;2.40;;
5279;SDS011;2663;53.588;10.010;2023-12-14T06:02:31;3.67;;;2.90;;
5279;SDS011;2663;53.588;10.010;2023-12-14T06:04:59;9.13;;;3.40;;
5279;SDS011;2663;53.588;10.010;2023-12-14T06:07:26;5.30;;;3.73;;
5279;SDS011;2663;53.588;10.010;2023-12-14T06:09:53;8.63;;;4.50;;
5279;SDS011;2663;53.588;10.010;2023-12-14T06:12:20;4.73;;;3.33;;
5279;SDS011;2663;53.588;10.010;2023-12-14T06:14:47;8.20;;;4.73;;
5279;SDS011;2663;53.588;10.010;2023-12-14T06:17:16;5.97;;;3.57;;
5279;SDS011;2663;53.588;10.010;2023-12-14T06:19:43;8.47;;;4.27;;
5279;SDS011;2663;53.588;10.010;2023-12-14T06:22:10;6.20;;;3.67;;
5279;SDS011;2663;53.588;10.010;2023-12-14T06:24:37;8.60;;;4.90;;
5279;SDS011;2663;53.588;10.010;2023-12-14T06:27:04;14.10;;;3.93;;
5279;SDS011;2663;53.588;10.010;2023-12-14T06:29:31;17.63;;;6.40;;
5279;SDS011;2663;53.588;10.010;2023-12-14T06:31:59;8.73;;;4.80;;
5279;SDS011;2663;53.588;10.010;2023-12-14T06:34:25;9.00;;;4.73;;
5279;SDS011;2663;53.588;10.010;2023-12-14T06:36:52;9.30;;;4.50;;
5279;SDS011;2663;53.588;10.010;2023-12-14T06:39:19;10.63;;;3.83;;
5279;SDS011;2663;53.588;10.010;2023-12-14T06:41:47;9.33;;;4.40;;
5279;SDS011;2663;53.588;10.010;2023-12-14T06:44:14;15.50;;;4.60;;
5279;SDS011;2663;53.588;10.010;2023-12-14T06:46:41;8.90;;;4.80;;
5279;SDS011;2663;53.588;10.010;2023-12-14T06:49:08;8.17;;;4.50;;
5279;SDS011;2663;53.588;10.010;2023-12-14T06:51:35;13.07;;;5.07;;
5279;SDS011;2663;53.588;10.010;2023-12-14T06:54:02;8.73;;;4.53;;
5279;SDS011;2663;53.588;10.010;2023-12-14T06:56:29;6.60;;;4.30;;
5279;SDS011;2663;53.588;10.010;2023-12-14T06:58:56;13.73;;;5.27;;
5279;SDS011;2663;53.588;10.010;2023-12-14T07:01:23;10.70;;;4.93;;
5279;SDS011;2663;53.588;10.010;2023-12-14T07:03:50;10.23;;;4.87;;
5279;SDS011;2663;53.588;10.010;2023-12-14T07:06:17;7.03;;;4.20;;
5279;SDS011;2663;53.588;10.010;2023-12-14T07:08:45;15.93;;;6.23;;
5279;SDS011;2663;53.588;10.010;2023-12-14T07:11:13;6.90;;;4.50;;
5279;SDS011;2663;53.588;10.010;2023-12-14T07:13:40;9.70;;;4.00;;
5279;SDS011;2663;53.588;10.010;2023-12-14T07:16:08;6.53;;;4.40;;
5279;SDS011;2663;53.588;10.010;2023-12-14T07:18:40;8.10;;;4.97;;
5279;SDS011;2663;53.588;10.010;2023-12-14T07:21:08;6.20;;;3.70;;
5279;SDS011;2663;53.588;10.010;2023-12-14T07:23:35;6.43;;;4.37;;
5279;SDS011;2663;53.588;10.010;2023-12-14T07:26:03;23.07;;;4.53;;
5279;SDS011;2663;53.588;10.010;2023-12-14T07:28:33;8.10;;;4.77;;
5279;SDS011;2663;53.588;10.010;2023-12-14T07:31:00;11.57;;;4.90;;
5279;SDS011;2663;53.588;10.010;2023-12-14T07:33:27;8.00;;;4.43;;
5279;SDS011;2663;53.588;10.010;2023-12-14T07:35:55;6.83;;;4.10;;
5279;SDS011;2663;53.588;10.010;2023-12-14T07:38:22;12.00;;;6.13;;
5279;SDS011;2663;53.588;10.010;2023-12-14T07:40:50;9.53;;;4.83;;
5279;SDS011;2663;53.588;10.010;2023-12-14T07:43:18;7.73;;;5.00;;
5279;SDS011;2663;53.588;10.010;2023-12-14T07:45:45;8.80;;;5.47;;
5279;SDS011;2663;53.588;10.010;2023-12-14T07:48:12;7.07;;;4.97;;
5279;SDS011;2663;53.588;10.010;2023-12-14T07:50:39;10.57;;;5.03;;
5279;SDS011;2663;53.588;10.010;2023-12-14T07:53:07;11.63;;;4.90;;
5279;SDS011;2663;53.588;10.010;2023-12-14T07:55:34;7.87;;;5.07;;
5279;SDS011;2663;53.588;10.010;2023-12-14T07:58:02;7.23;;;4.00;;
5279;SDS011;2663;53.588;10.010;2023-12-14T08:00:32;9.23;;;5.03;;
5279;SDS011;2663;53.588;10.010;2023-12-14T08:02:59;7.37;;;5.10;;
5279;SDS011;2663;53.588;10.010;2023-12-14T08:05:27;8.13;;;4.93;;
5279;SDS011;2663;53.588;10.010;2023-12-14T08:07:55;8.53;;;4.00;;
5279;SDS011;2663;53.588;10.010;2023-12-14T08:10:22;9.37;;;5.30;;
5279;SDS011;2663;53.588;10.010;2023-12-14T08:12:49;6.47;;;5.00;;
5279;SDS011;2663;53.588;10.010;2023-12-14T08:15:18;16.10;;;5.70;;
5279;SDS011;2663;53.588;10.010;2023-12-14T08:17:45;9.47;;;5.20;;
5279;SDS011;2663;53.588;10.010;2023-12-14T08:20:12;9.03;;;4.10;;
5279;SDS011;2663;53.588;10.010;2023-12-14T08:22:39;6.37;;;4.40;;
5279;SDS011;2663;53.588;10.010;2023-12-14T08:25:13;9.90;;;6.37;;
5279;SDS011;2663;53.588;10.010;2023-12-14T08:27:41;6.80;;;3.90;;
5279;SDS011;2663;53.588;10.010;2023-12-14T08:30:08;5.70;;;4.60;;
5279;SDS011;2663;53.588;10.010;2023-12-14T08:32:35;12.70;;;4.77;;
5279;SDS011;2663;53.588;10.010;2023-12-14T08:35:03;11.27;;;4.67;;
5279;SDS011;2663;53.588;10.010;2023-12-14T08:37:30;11.37;;;4.90;;
5279;SDS011;2663;53.588;10.010;2023-12-14T08:39:57;10.50;;;5.10;;
5279;SDS011;2663;53.588;10.010;2023-12-14T08:42:24;9.90;;;4.67;;
5279;SDS011;2663;53.588;10.010;2023-12-14T08:44:51;10.30;;;5.77;;
5279;SDS011;2663;53.588;10.010;2023-12-14T08:47:19;6.27;;;4.83;;
5279;SDS011;2663;53.588;10.010;2023-12-14T08:49:45;9.50;;;4.17;;
5279;SDS011;2663;53.588;10.010;2023-12-14T08:52:13;8.10;;;5.03;;
5279;SDS011;2663;53.588;10.010;2023-12-14T08:54:40;8.33;;;4.00;;
5279;SDS011;2663;53.588;10.010;2023-12-14T08:57:09;5.60;;;3.87;;
5279;SDS011;2663;53.588;10.010;2023-12-14T08:59:37;11.13;;;3.80;;
5279;SDS011;2663;53.588;10.010;2023-12-14T09:02:06;12.40;;;5.33;;
5279;SDS011;2663;53.588;10.010;2023-12-14T09:04:34;6.73;;;4.13;;
5279;SDS011;2663;53.588;10.010;2023-12-14T09:07:02;5.43;;;3.50;;
5279;SDS011;2663;53.588;10.010;2023-12-14T09:09:30;5.60;;;4.00;;
5279;SDS011;2663;53.588;10.010;2023-12-14T09:11:58;7.03;;;4.03;;
5279;SDS011;2663;53.588;10.010;2023-12-14T09:14:25;7.40;;;4.80;;
5279;SDS011;2663;53.588;10.010;2023-12-14T09:16:52;9.83;;;4.50;;
5279;SDS011;2663;53.588;10.010;2023-12-14T09:19:19;11.40;;;4.90;;
5279;SDS011;2663;53.588;10.010;2023-12-14T09:21:47;10.60;;;4.17;;
5279;SDS011;2663;53.588;10.010;2023-12-14T09:24:14;7.10;;;4.07;;
5279;SDS011;2663;53.588;10.010;2023-12-14T09:26:42;7.23;;;4.40;;
5279;SDS011;2663;53.588;10.010;2023-12-14T09:29:09;5.90;;;3.67;;
5279;SDS011;2663;53.588;10.010;2023-12-14T09:31:37;6.80;;;3.70;;
5279;SDS011;2663;53.588;10.010;2023-12-14T09:34:04;8.43;;;5.37;;
5279;SDS011;2663;53.588;10.010;2023-12-14T09:36:31;11.40;;;4.57;;
5279;SDS011;2663;53.588;10.010;2023-12-14T09:38:58;4.17;;;3.80;;
5279;SDS011;2663;53.588;10.010;2023-12-14T09:41:25;10.27;;;5.30;;
5279;SDS011;2663;53.588;10.010;2023-12-14T09:43:53;5.73;;;4.33;;
5279;SDS011;2663;53.588;10.010;2023-12-14T09:46:20;9.93;;;5.20;;
5279;SDS011;2663;53.588;10.010;2023-12-14T09:48:49;6.57;;;4.97;;
5279;SDS011;2663;53.588;10.010;2023-12-14T09:51:17;7.17;;;4.20;;
5279;SDS011;2663;53.588;10.010;2023-12-14T09:53:44;7.40;;;4.33;;
5279;SDS011;2663;53.588;10.010;2023-12-14T09:56:11;7.70;;;5.10;;
5279;SDS011;2663;53.588;10.010;2023-12-14T09:58:39;6.90;;;4.43;;
5279;SDS011;2663;53.588;10.010;2023-12-14T10:01:20;7.17;;;4.77;;
5279;SDS011;2663;53.588;10.010;2023-12-14T10:04:06;11.70;;;4.43;;
5279;SDS011;2663;53.588;10.010;2023-12-14T10:06:38;6.47;;;4.70;;
5279;SDS011;2663;53.588;10.010;2023-12-14T10:09:06;8.10;;;5.17;;
5279;SDS011;2663;53.588;10.010;2023-12-14T10:11:39;5.37;;;4.50;;
5279;SDS011;2663;53.588;10.010;2023-12-14T10:14:23;8.63;;;5.10;;
5279;SDS011;2663;53.588;10.010;2023-12-14T10:16:52;5.80;;;4.13;;
5279;SDS011;2663;53.588;10.010;2023-12-14T10:19:28;10.73;;;4.70;;
5279;SDS011;2663;53.588;10.010;2023-12-14T10:21:56;8.00;;;5.00;;
5279;SDS011;2663;53.588;10.010;2023-12-14T10:24:23;6.60;;;4.40;;
5279;SDS011;2663;53.588;10.010;2023-12-14T10:26:50;6.90;;;4.50;;
5279;SDS011;2663;53.588;10.010;2023-12-14T10:29:18;11.73;;;5.33;;
5279;SDS011;2663;53.588;10.010;2023-12-14T10:31:45;8.10;;;4.50;;
5279;SDS011;2663;53.588;10.010;2023-12-14T10:34:12;12.13;;;5.13;;
5279;SDS011;2663;53.588;10.010;2023-12-14T10:36:40;10.10;;;4.40;;
5279;SDS011;2663;53.588;10.010;2023-12-14T10:39:08;6.33;;;5.00;;
5279;SDS011;2663;53.588;10.010;2023-12-14T10:41:39;6.80;;;5.03;;
5279;SDS011;2663;53.588;10.010;2023-12-14T10:44:06;9.00;;;4.13;;
5279;SDS011;2663;53.588;10.010;2023-12-14T10:46:54;8.17;;;4.60;;
5279;SDS011;2663;53.588;10.010;2023-12-14T10:49:24;8.10;;;4.33;;
5279;SDS011;2663;53.588;10.010;2023-12-14T10:51:52;4.97;;;3.60;;
5279;SDS011;2663;53.588;10.010;2023-12-14T10:54:22;9.40;;;4.40;;
5279;SDS011;2663;53.588;10.010;2023-12-14T10:56:54;10.50;;;4.37;;
5279;SDS011;2663;53.588;10.010;2023-12-14T10:59:25;10.03;;;4.10;;
5279;SDS011;2663;53.588;10.010;2023-12-14T11:01:54;4.73;;;4.20;;
5279;SDS011;2663;53.588;10.010;2023-12-14T11:04:21;5.60;;;4.30;;
5279;SDS011;2663;53.588;10.010;2023-12-14T11:06:49;5.67;;;4.70;;
5279;SDS011;2663;53.588;10.010;2023-12-14T11:09:18;9.27;;;4.63;;
5279;SDS011;2663;53.588;10.010;2023-12-14T11:11:55;10.13;;;5.27;;
5279;SDS011;2663;53.588;10.010;2023-12-14T11:14:25;7.70;;;4.93;;
5279;SDS011;2663;53.588;10.010;2023-12-14T11:16:53;4.23;;;3.60;;
5279;SDS011;2663;53.588;10.010;2023-12-14T11:19:31;4.73;;;4.00;;
5279;SDS011;2663;53.588;10.010;2023-12-14T11:24:34;5.90;;;3.70;;
5279;SDS011;2663;53.588;10.010;2023-12-14T11:27:08;6.63;;;5.20;;
5279;SDS011;2663;53.588;10.010;2023-12-14T11:29:36;16.13;;;5.20;;
5279;SDS011;2663;53.588;10.010;2023-12-14T11:32:05;6.30;;;4.37;;
5279;SDS011;2663;53.588;10.010;2023-12-14T11:34:32;9.63;;;5.47;;
5279;SDS011;2663;53.588;10.010;2023-12-14T11:37:00;9.60;;;4.67;;
5279;SDS011;2663;53.588;10.010;2023-12-14T11:39:30;9.43;;;4.53;;
5279;SDS011;2663;53.588;10.010;2023-12-14T11:42:01;12.10;;;4.70;;
5279;SDS011;2663;53.588;10.010;2023-12-14T11:44:29;7.67;;;4.70;;
5279;SDS011;2663;53.588;10.010;2023-12-14T11:47:00;6.53;;;4.00;;
5279;SDS011;2663;53.588;10.010;2023-12-14T11:49:28;13.30;;;4.40;;
5279;SDS011;2663;53.588;10.010;2023-12-14T11:51:55;7.80;;;4.90;;
5279;SDS011;2663;53.588;10.010;2023-12-14T11:54:23;10.87;;;4.90;;
5279;SDS011;2663;53.588;10.010;2023-12-14T11:56:50;6.93;;;4.37;;
5279;SDS011;2663;53.588;10.010;2023-12-14T11:59:17;7.80;;;5.00;;
5279;SDS011;2663;53.588;10.010;2023-12-14T12:02:03;10.13;;;4.77;;
5279;SDS011;2663;53.588;10.010;2023-12-14T12:04:30;6.83;;;4.40;;
5279;SDS011;2663;53.588;10.010;2023-12-14T12:07:04;11.33;;;5.40;;
5279;SDS011;2663;53.588;10.010;2023-12-14T12:09:40;9.70;;;5.83;;
5279;SDS011;2663;53.588;10.010;2023-12-14T12:12:09;9.63;;;4.87;;
5279;SDS011;2663;53.588;10.010;2023-12-14T12:14:37;10.73;;;5.70;;
5279;SDS011;2663;53.588;10.010;2023-12-14T12:17:05;6.83;;;4.70;;
5279;SDS011;2663;53.588;10.010;2023-12-14T12:19:33;10.50;;;4.93;;
5279;SDS011;2663;53.588;10.010;2023-12-14T12:22:01;9.40;;;5.30;;
5279;SDS011;2663;53.588;10.010;2023-12-14T12:24:28;9.83;;;4.53;;
5279;SDS011;2663;53.588;10.010;2023-12-14T12:26:56;11.60;;;5.67;;
5279;SDS011;2663;53.588;10.010;2023-12-14T12:29:24;7.33;;;4.97;;
5279;SDS011;2663;53.588;10.010;2023-12-14T12:31:51;6.20;;;4.83;;
5279;SDS011;2663;53.588;10.010;2023-12-14T12:34:18;8.93;;;6.00;;
5279;SDS011;2663;53.588;10.010;2023-12-14T12:36:45;9.83;;;4.70;;
5279;SDS011;2663;53.588;10.010;2023-12-14T12:39:13;9.87;;;5.30;;
5279;SDS011;2663;53.588;10.010;2023-12-14T12:41:39;9.57;;;5.50;;
5279;SDS011;2663;53.588;10.010;2023-12-14T12:44:07;9.87;;;5.73;;
5279;SDS011;2663;53.588;10.010;2023-12-14T12:46:35;7.87;;;5.30;;
5279;SDS011;2663;53.588;10.010;2023-12-14T12:49:02;14.20;;;6.40;;
5279;SDS011;2663;53.588;10.010;2023-12-14T12:51:31;6.70;;;5.57;;
5279;SDS011;2663;53.588;10.010;2023-12-14T12:53:58;10.83;;;4.83;;
5279;SDS011;2663;53.588;10.010;2023-12-14T12:56:37;10.23;;;6.23;;
5279;SDS011;2663;53.588;10.010;2023-12-14T12:59:05;12.43;;;5.90;;
5279;SDS011;2663;53.588;10.010;2023-12-14T13:01:35;8.40;;;5.37;;
5279;SDS011;2663;53.588;10.010;2023-12-14T13:04:03;11.67;;;5.63;;
5279;SDS011;2663;53.588;10.010;2023-12-14T13:06:31;17.10;;;5.83;;
5279;SDS011;2663;53.588;10.010;2023-12-14T13:08:58;9.17;;;5.80;;
5279;SDS011;2663;53.588;10.010;2023-12-14T13:11:25;11.33;;;4.90;;
5279;SDS011;2663;53.588;10.010;2023-12-14T13:13:53;11.13;;;5.80;;
5279;SDS011;2663;53.588;10.010;2023-12-14T13:16:20;9.37;;;5.57;;
5279;SDS011;2663;53.588;10.010;2023-12-14T13:18:47;8.50;;;6.30;;
5279;SDS011;2663;53.588;10.010;2023-12-14T13:21:14;10.23;;;5.47;;
5279;SDS011;2663;53.588;10.010;2023-12-14T13:23:41;8.33;;;5.40;;
5279;SDS011;2663;53.588;10.010;2023-12-14T13:26:08;9.70;;;5.20;;
5279;SDS011;2663;53.588;10.010;2023-12-14T13:28:35;6.17;;;5.30;;
5279;SDS011;2663;53.588;10.010;2023-12-14T13:31:02;9.73;;;5.40;;
5279;SDS011;2663;53.588;10.010;2023-12-14T13:33:29;18.17;;;6.30;;
5279;SDS011;2663;53.588;10.010;2023-12-14T13:35:57;8.87;;;5.60;;
5279;SDS011;2663;53.588;10.010;2023-12-14T13:38:24;16.67;;;5.00;;
5279;SDS011;2663;53.588;10.010;2023-12-14T13:40:52;12.07;;;4.97;;
5279;SDS011;2663;53.588;10.010;2023-12-14T13:43:19;8.90;;;5.83;;
5279;SDS011;2663;53.588;10.010;2023-12-14T13:45:46;6.27;;;4.70;;
5279;SDS011;2663;53.588;10.010;2023-12-14T13:48:26;11.60;;;5.80;;
5279;SDS011;2663;53.588;10.010;2023-12-14T13:50:54;11.40;;;5.27;;
5279;SDS011;2663;53.588;10.010;2023-12-14T13:53:22;8.40;;;4.73;;
5279;SDS011;2663;53.588;10.010;2023-12-14T13:55:49;8.37;;;5.20;;
5279;SDS011;2663;53.588;10.010;2023-12-14T13:58:16;13.57;;;5.17;;
5279;SDS011;2663;53.588;10.010;2023-12-14T14:00:43;6.10;;;5.10;;
5279;SDS011;2663;53.588;10.010;2023-12-14T14:03:10;8.90;;;5.33;;
5279;SDS011;2663;53.588;10.010;2023-12-14T14:05:37;9.60;;;5.50;;
5279;SDS011;2663;53.588;10.010;2023-12-14T14:08:04;6.23;;;4.70;;
5279;SDS011;2663;53.588;10.010;2023-12-14T14:10:33;17.23;;;5.77;;
5279;SDS011;2663;53.588;10.010;2023-12-14T14:13:00;12.83;;;5.90;;
5279;SDS011;2663;53.588;10.010;2023-12-14T14:15:27;10.20;;;5.20;;
5279;SDS011;2663;53.588;10.010;2023-12-14T14:17:54;10.80;;;5.83;;
5279;SDS011;2663;53.588;10.010;2023-12-14T14:20:21;7.03;;;4.90;;
5279;SDS011;2663;53.588;10.010;2023-12-14T14:22:50;8.47;;;6.13;;
5279;SDS011;2663;53.588;10.010;2023-12-14T14:25:17;6.47;;;5.03;;
5279;SDS011;2663;53.588;10.010;2023-12-14T14:27:44;10.47;;;5.50;;
5279;SDS011;2663;53.588;10.010;2023-12-14T14:30:13;11.13;;;5.60;;
5279;SDS011;2663;53.588;10.010;2023-12-14T14:32:40;13.43;;;5.60;;
5279;SDS011;2663;53.588;10.010;2023-12-14T14:35:07;6.33;;;4.50;;
5279;SDS011;2663;53.588;10.010;2023-12-14T14:37:35;7.37;;;4.70;;
5279;SDS011;2663;53.588;10.010;2023-12-14T14:40:02;11.03;;;6.17;;
5279;SDS011;2663;53.588;10.010;2023-12-14T14:42:30;9.27;;;5.10;;
5279;SDS011;2663;53.588;10.010;2023-12-14T14:44:58;8.90;;;4.53;;
5279;SDS011;2663;53.588;10.010;2023-12-14T14:47:26;16.37;;;7.50;;
5279;SDS011;2663;53.588;10.010;2023-12-14T14:49:54;11.50;;;5.10;;
5279;SDS011;2663;53.588;10.010;2023-12-14T14:52:32;12.33;;;5.37;;
5279;SDS011;2663;53.588;10.010;2023-12-14T14:55:00;8.63;;;4.60;;
5279;SDS011;2663;53.588;10.010;2023-12-14T14:57:27;11.17;;;4.80;;
5279;SDS011;2663;53.588;10.010;2023-12-14T14:59:54;10.87;;;5.10;;
5279;SDS011;2663;53.588;10.010;2023-12-14T15:02:22;8.53;;;5.20;;
5279;SDS011;2663;53.588;10.010;2023-12-14T15:04:49;12.00;;;6.17;;